Sunday, October 21, 2018, 9:21 PM EDT
Back to Local

KALB, Albany International Airport

Location: Latham, NY, United States Lat: 42.75
Local Time: 9:21 PM EDT ( 1:21 GMT) Lon: -73.8
Time Zone: US/Eastern Elev: 285 ft

Show me the last for .
Show Decoded

2018-10-21 20:51 METAR KALB 220051Z 29008KT 10SM BKN055 04/M04 A3009 RMK AO2 SLP192 T00391044 =
2018-10-21 19:51 METAR KALB 212351Z 29010KT 10SM OVC055 04/M05 A3008 RMK AO2 SLP188 T00441050
                 10078 20039 51024 =
2018-10-21 18:51 METAR KALB 212251Z 30014G19KT 10SM BKN060 04/M06 A3007 RMK AO2 SLP185 T00391061
                 =
2018-10-21 17:51 METAR KALB 212151Z 29015KT 10SM SCT060 04/M06 A3003 RMK AO2 PK WND 33027/2057
                 SLP172 T00441056 =
2018-10-21 16:51 METAR KALB 212051Z 30015KT 10SM SCT060 06/M07 A3001 RMK AO2 PK WND 29029/2009
                 SLP163 T00611072 53013 =
2018-10-21 15:51 METAR KALB 211951Z 30015G25KT 10SM FEW060 07/M07 A2999 RMK AO2 PK WND 29032/1915
                 SLP156 T00671067 =
2018-10-21 14:51 METAR KALB 211851Z 32017G26KT 10SM BKN060 07/M06 A2998 RMK AO2 PK WND 32026/1810
                 SLP152 T00721061 =
2018-10-21 13:51 METAR KALB 211751Z 32019G28KT 10SM BKN055 08/M06 A2997 RMK AO2 PK WND 32029/1736
                 SLP150 T00781061 10078 20039 50004 =
2018-10-21 12:51 METAR KALB 211651Z 31015G21KT 10SM BKN050 06/M06 A2997 RMK AO2 PK WND 30027/1637
                 SLP151 BKN V OVC T00611061 =
2018-10-21 11:51 METAR KALB 211551Z 31013G21KT 10SM OVC049 07/M05 A2997 RMK AO2 SLP148 BINOVC
                 T00671050 =
2018-10-21 10:51 METAR KALB 211451Z 32011KT 10SM OVC049 05/M04 A2996 RMK AO2 SLP146 OCNL BINOVC
                 T00501044 51034 =
2018-10-21 09:51 METAR KALB 211351Z 31012G20KT 10SM OVC038 04/M04 A2994 RMK AO2 SLP139 OCNL
                 BINOVC T00441039 =
2018-10-21 08:51 METAR KALB 211251Z 32010G19KT 10SM BKN042 BKN050 04/M03 A2990 RMK AO2 SLP127
                 T00441033 =
2018-10-21 07:51 METAR KALB 211151Z 29011KT 10SM BKN048 BKN180 04/M03 A2986 RMK AO2 SLP112 70001
                 T00391028 10089 20039 51050 =
2018-10-21 06:51 METAR KALB 211051Z 30013KT 10SM BKN044 BKN180 BKN210 04/M02 A2981 RMK AO2 SLP097
                 T00441022 =
2018-10-21 05:51 METAR KALB 210951Z 31012KT 10SM OVC180 06/M02 A2976 RMK AO2 SLP078 OCNL BINOVC
                 T00611017 =
2018-10-21 04:51 METAR KALB 210851Z 32009KT 10SM OVC140 07/M01 A2971 RMK AO2 SLP061 T00721011
                 53021 =
2018-10-21 03:51 METAR KALB 210751Z 33013KT 10SM FEW040 OVC100 08/01 A2968 RMK AO2 SLP050 SHRA
                 DSNT E-SE T00830011 =
2018-10-21 02:51 METAR KALB 210651Z 30008KT 10SM FEW065 OVC090 08/03 A2966 RMK AO2 SLP042
                 T00830028 =
2018-10-21 01:51 METAR KALB 210551Z 28008KT 10SM SCT085 OVC100 08/04 A2965 RMK AO2 SLP040 60000
                 T00780039 10100 20078 53005 =
2018-10-21 00:51 METAR KALB 210451Z 28005KT 10SM BKN110 OVC140 08/04 A2964 RMK AO2 SLP037
                 T00780039 401670078 =
2018-10-20 23:51 METAR KALB 210351Z 27005KT 10SM FEW070 BKN100 OVC130 08/04 A2963 RMK AO2 SLP035
                 T00780044 =
2018-10-20 22:51 METAR KALB 210251Z 28006KT 10SM BKN075 OVC090 09/05 A2963 RMK AO2 SLP034 60000
                 T00890050 55001 =
2018-10-20 21:51 METAR KALB 210151Z 23004KT 10SM OVC095 09/06 A2962 RMK AO2 SLP031 T00890056 =

Support USWX by starting your Amazon purchase here.